Burnet's Hourly Summary for Tuesday, July 10, 2018
Hour Temp
(f)
RH
(%)
Solar Rad.
(MJ/m2)
Rainfall
(in)
Wind
(mph)
7/10/2018 12:00 AM 73 93 0 0 1.57
7/10/2018 1:00 AM 73 89 0 0 0.97
7/10/2018 2:00 AM 72 89 0 0 1.63
7/10/2018 3:00 AM 72 90 0 0 1.86
7/10/2018 4:00 AM 72 91 0 0 2.3
7/10/2018 5:00 AM 0 0 0 0 0
7/10/2018 6:00 AM 72 97 0 0 1.28
7/10/2018 7:00 AM 71 97 0.01 0 1.35
7/10/2018 8:00 AM 74 97 0.25 0 1.81
7/10/2018 9:00 AM 74 85 0.82 0 3.32
7/10/2018 10:00 AM 80 75 0 0 0
7/10/2018 11:00 AM 84 71 1.32 0 3.49
7/10/2018 12:00 PM 87 51 2.45 0 3.73
7/10/2018 1:00 PM 89 44 3.03 0 4.21
7/10/2018 2:00 PM 90 40 3.23 0 5.16
7/10/2018 3:00 PM 91 38 2.14 0 5.43
7/10/2018 4:00 PM 91 38 2.28 0 5.53
7/10/2018 5:00 PM 91 36 1.32 0 5.91
7/10/2018 6:00 PM 91 39 1.85 0 5.68
7/10/2018 7:00 PM 90 43 1.22 0 5.76
7/10/2018 8:00 PM 89 46 0.52 0 5.64
7/10/2018 9:00 PM 86 49 0.05 0 4.31
7/10/2018 10:00 PM 83 56 0 0 2.33
7/10/2018 11:00 PM 81 63 0 0 0.68
Data Summary 78 63 20.49 0.00 3.08